Golinda, Texas
Current Conditions -  °F | °C
As of 3:35 PM on Saturday 25 Oct 2014 (Local Time) from KPWG Reporting Station
Clear Clear  
Wind Chill: 90°   Ceiling: Unl
Heat Index: 90°   Visibility: 10mi
Dew Point: 59°   Wind: 6mph
Humidity: 36%   Direction: 170°S
Pressure: 30.09"   Gusts: NA
Location:  31.3976°N, 97.22°W
Report Text: KPWG 252035Z AUTO 17005KT 10SM CLR 32/15 A3009 RMK AO1
Loading
Personal Weather Stations






























Interactive Weather Map
Tropical Storm Tracking
New forecast layout! Learn more

10-Day Weather Forecast

Advertisements
Track Severe Weather on mobile